Language: 


Des rapports , des résumés tant et plus, au choix de chacun....


Données Historiques de Météogheer
Journalier Rapport pour Février 25, 2018 Unitée:  Les deux    Impériale   Métrique
Suivant Jour »
Journalier Hebdomadaire Mensuel Annuel Sur mesure
  Max: Min: Moyenne:
Température: 38.8 °F /  3.8 °C 26.4 °F /  -3.1 °C 31.6 °F /  -0.2 °C
Point de rosée: 17.6 °F /  -8.0 °C 8.6 °F /  -13.0 °C 12.7 °F /  -10.7 °C
Humidité: 58% 29% 47%
Vent: 17.9mph /  28.8km/h - 9.4mph /  15.2km/h
Rafales: 19.2mph /  30.9km/h - -
Vent- - ENE
Pression: 30.3 in /  1027.0 hPa 30.2 in /  1021.9 hPa -
Pluie: 0 in /  0.0 mm    
Historical Graphs
 
 
Données tabulaires pour Février 25, 2018
Heure Température Point de rosée Pression Vent Vent Rafales Humidité Pluie Taux (Horaire) Conditions
00:02 31.8 °F /  -0.1 °C 17.6 °F /  -8.0 °C 30.2in /  1022.9hPa NNE 10.3mph /  16.6km/h 13mph /  20.9km/h 58% 0in /  0.0mm
00:07 31.8 °F /  -0.1 °C 17.6 °F /  -8.0 °C 30.2in /  1022.9hPa ENE 11mph /  17.7km/h 13.2mph /  21.2km/h 58% 0in /  0.0mm
00:12 31.8 °F /  -0.1 °C 17.6 °F /  -8.0 °C 30.2in /  1022.9hPa NNE 13.2mph /  21.2km/h 13.2mph /  21.2km/h 57% 0in /  0.0mm
00:17 31.6 °F /  -0.2 °C 17.6 °F /  -8.0 °C 30.2in /  1022.9hPa NE 9.8mph /  15.8km/h 13.2mph /  21.2km/h 57% 0in /  0.0mm
00:22 31.6 °F /  -0.2 °C 17.6 °F /  -8.0 °C 30.2in /  1022.9hPa NE 12.5mph /  20.1km/h 13.2mph /  21.2km/h 57% 0in /  0.0mm
00:27 31.6 °F /  -0.2 °C 17.6 °F /  -8.0 °C 30.2in /  1022.9hPa NE 8.7mph /  14.0km/h 14.8mph /  23.8km/h 57% 0in /  0.0mm
00:33 31.5 °F /  -0.3 °C 15.8 °F /  -9.0 °C 30.2in /  1023.9hPa NE 10.3mph /  16.6km/h 14.8mph /  23.8km/h 57% 0in /  0.0mm
00:38 31.3 °F /  -0.4 °C 15.8 °F /  -9.0 °C 30.2in /  1023.9hPa NE 9.4mph /  15.1km/h 11.9mph /  19.1km/h 56% 0in /  0.0mm
00:43 31.3 °F /  -0.4 °C 15.8 °F /  -9.0 °C 30.2in /  1023.9hPa ENE 8.7mph /  14.0km/h 15.7mph /  25.3km/h 56% 0in /  0.0mm
00:48 31.3 °F /  -0.4 °C 15.8 °F /  -9.0 °C 30.2in /  1022.9hPa NE 8.5mph /  13.7km/h 15.7mph /  25.3km/h 56% 0in /  0.0mm
00:51 31.3 °F /  -0.4 °C 15.8 °F /  -9.0 °C 30.2in /  1022.9hPa ENE 12.8mph /  20.6km/h 15.7mph /  25.3km/h 56% 0in /  0.0mm
00:56 31.1 °F /  -0.5 °C 15.8 °F /  -9.0 °C 30.2in /  1022.9hPa East 6mph /  9.7km/h 12.8mph /  20.6km/h 56% 0in /  0.0mm
01:01 31.1 °F /  -0.5 °C 15.8 °F /  -9.0 °C 30.2in /  1022.9hPa ENE 12.3mph /  19.8km/h 12.8mph /  20.6km/h 56% 0in /  0.0mm
01:06 31.1 °F /  -0.5 °C 15.8 °F /  -9.0 °C 30.2in /  1022.9hPa NE 6.3mph /  10.1km/h 13.4mph /  21.6km/h 56% 0in /  0.0mm
01:11 30.9 °F /  -0.6 °C 15.8 °F /  -9.0 °C 30.2in /  1022.9hPa East 6.7mph /  10.8km/h 14.5mph /  23.3km/h 56% 0in /  0.0mm
01:16 30.9 °F /  -0.6 °C 15.8 °F /  -9.0 °C 30.2in /  1022.9hPa NE 8.7mph /  14.0km/h 14.5mph /  23.3km/h 56% 0in /  0.0mm
01:21 30.7 °F /  -0.7 °C 15.8 °F /  -9.0 °C 30.2in /  1022.9hPa ENE 8.7mph /  14.0km/h 10.7mph /  17.2km/h 56% 0in /  0.0mm
01:26 30.6 °F /  -0.8 °C 15.8 °F /  -9.0 °C 30.2in /  1022.9hPa NE 7.8mph /  12.6km/h 13mph /  20.9km/h 56% 0in /  0.0mm
01:31 30.6 °F /  -0.8 °C 15.8 °F /  -9.0 °C 30.2in /  1022.9hPa ENE 7.8mph /  12.6km/h 13.2mph /  21.2km/h 56% 0in /  0.0mm
01:36 30.4 °F /  -0.9 °C 15.8 °F /  -9.0 °C 30.2in /  1022.9hPa ENE 10.7mph /  17.2km/h 13.2mph /  21.2km/h 56% 0in /  0.0mm
01:41 30.4 °F /  -0.9 °C 15.8 °F /  -9.0 °C 30.2in /  1022.9hPa NE 12.1mph /  19.5km/h 15.7mph /  25.3km/h 56% 0in /  0.0mm
01:46 30.4 °F /  -0.9 °C 15.8 °F /  -9.0 °C 30.2in /  1022.9hPa East 13.2mph /  21.2km/h 15.7mph /  25.3km/h 56% 0in /  0.0mm
01:51 30.2 °F /  -1.0 °C 15.8 °F /  -9.0 °C 30.2in /  1022.9hPa ENE 10.7mph /  17.2km/h 14.1mph /  22.7km/h 56% 0in /  0.0mm
01:57 30.2 °F /  -1.0 °C 15.8 °F /  -9.0 °C 30.2in /  1022.9hPa ENE 6mph /  9.7km/h 14.1mph /  22.7km/h 56% 0in /  0.0mm
02:02 30 °F /  -1.1 °C 15.8 °F /  -9.0 °C 30.2in /  1022.9hPa East 11mph /  17.7km/h 12.8mph /  20.6km/h 57% 0in /  0.0mm
02:07 30 °F /  -1.1 °C 15.8 °F /  -9.0 °C 30.2in /  1022.9hPa ENE 10.5mph /  16.9km/h 15.2mph /  24.5km/h 57% 0in /  0.0mm
02:12 29.8 °F /  -1.2 °C 15.8 °F /  -9.0 °C 30.2in /  1022.9hPa ENE 10.5mph /  16.9km/h 15.2mph /  24.5km/h 57% 0in /  0.0mm
02:17 29.8 °F /  -1.2 °C 15.8 °F /  -9.0 °C 30.2in /  1022.9hPa East 6mph /  9.7km/h 13.2mph /  21.2km/h 57% 0in /  0.0mm
02:22 29.7 °F /  -1.3 °C 15.8 °F /  -9.0 °C 30.2in /  1022.9hPa ENE 9.8mph /  15.8km/h 13.2mph /  21.2km/h 57% 0in /  0.0mm
02:27 29.7 °F /  -1.3 °C 15.8 °F /  -9.0 °C 30.2in /  1022.9hPa ENE 6.5mph /  10.5km/h 13.2mph /  21.2km/h 57% 0in /  0.0mm
02:32 29.5 °F /  -1.4 °C 15.8 °F /  -9.0 °C 30.2in /  1022.9hPa ENE 10.5mph /  16.9km/h 13mph /  20.9km/h 57% 0in /  0.0mm
02:37 29.5 °F /  -1.4 °C 15.8 °F /  -9.0 °C 30.2in /  1022.9hPa ENE 8.1mph /  13.0km/h 13mph /  20.9km/h 57% 0in /  0.0mm
02:42 29.5 °F /  -1.4 °C 15.8 °F /  -9.0 °C 30.2in /  1022.9hPa East 8.5mph /  13.7km/h 12.5mph /  20.1km/h 57% 0in /  0.0mm
02:47 29.5 °F /  -1.4 °C 15.8 °F /  -9.0 °C 30.2in /  1022.9hPa NE 7.4mph /  11.9km/h 12.5mph /  20.1km/h 57% 0in /  0.0mm
02:52 29.5 °F /  -1.4 °C 15.8 °F /  -9.0 °C 30.2in /  1022.9hPa East 8.7mph /  14.0km/h 12.3mph /  19.8km/h 57% 0in /  0.0mm
02:57 29.3 °F /  -1.5 °C 14 °F /  -10.0 °C 30.2in /  1022.9hPa ENE 7.4mph /  11.9km/h 12.3mph /  19.8km/h 57% 0in /  0.0mm
03:02 29.5 °F /  -1.4 °C 14 °F /  -10.0 °C 30.2in /  1023.9hPa ENE 9.4mph /  15.1km/h 12.1mph /  19.5km/h 56% 0in /  0.0mm
03:07 29.3 °F /  -1.5 °C 14 °F /  -10.0 °C 30.2in /  1023.9hPa NE 7.6mph /  12.2km/h 13mph /  20.9km/h 56% 0in /  0.0mm
03:12 29.3 °F /  -1.5 °C 14 °F /  -10.0 °C 30.2in /  1023.9hPa NE 6mph /  9.7km/h 13mph /  20.9km/h 56% 0in /  0.0mm
03:17 29.3 °F /  -1.5 °C 14 °F /  -10.0 °C 30.2in /  1022.9hPa ENE 6mph /  9.7km/h 11mph /  17.7km/h 56% 0in /  0.0mm
03:22 29.1 °F /  -1.6 °C 14 °F /  -10.0 °C 30.2in /  1022.9hPa NE 8.9mph /  14.3km/h 11mph /  17.7km/h 56% 0in /  0.0mm
03:27 29.1 °F /  -1.6 °C 14 °F /  -10.0 °C 30.2in /  1022.9hPa NE 7.4mph /  11.9km/h 11.9mph /  19.1km/h 56% 0in /  0.0mm
03:32 28.9 °F /  -1.7 °C 14 °F /  -10.0 °C 30.2in /  1022.9hPa ENE 7.8mph /  12.6km/h 11.9mph /  19.1km/h 56% 0in /  0.0mm
03:37 28.9 °F /  -1.7 °C 14 °F /  -10.0 °C 30.2in /  1022.9hPa ENE 8.1mph /  13.0km/h 11mph /  17.7km/h 56% 0in /  0.0mm
03:43 28.9 °F /  -1.7 °C 14 °F /  -10.0 °C 30.2in /  1022.9hPa East 7.8mph /  12.6km/h 11.9mph /  19.1km/h 56% 0in /  0.0mm
03:48 28.8 °F /  -1.8 °C 14 °F /  -10.0 °C 30.2in /  1022.9hPa East 13.2mph /  21.2km/h 13.2mph /  21.2km/h 56% 0in /  0.0mm
03:53 28.8 °F /  -1.8 °C 14 °F /  -10.0 °C 30.2in /  1022.9hPa NE 7.2mph /  11.6km/h 13.2mph /  21.2km/h 56% 0in /  0.0mm
03:58 28.8 °F /  -1.8 °C 14 °F /  -10.0 °C 30.2in /  1022.9hPa East 7.8mph /  12.6km/h 13.2mph /  21.2km/h 56% 0in /  0.0mm
04:03 28.6 °F /  -1.9 °C 14 °F /  -10.0 °C 30.2in /  1022.9hPa East 6.3mph /  10.1km/h 11mph /  17.7km/h 56% 0in /  0.0mm
04:08 28.6 °F /  -1.9 °C 14 °F /  -10.0 °C 30.2in /  1022.9hPa East 6.5mph /  10.5km/h 12.3mph /  19.8km/h 56% 0in /  0.0mm
04:13 28.6 °F /  -1.9 °C 14 °F /  -10.0 °C 30.2in /  1022.9hPa East 6.3mph /  10.1km/h 12.3mph /  19.8km/h 56% 0in /  0.0mm
04:18 28.6 °F /  -1.9 °C 14 °F /  -10.0 °C 30.2in /  1021.9hPa ENE 7.6mph /  12.2km/h 12.3mph /  19.8km/h 56% 0in /  0.0mm
04:23 28.6 °F /  -1.9 °C 14 °F /  -10.0 °C 30.2in /  1021.9hPa East 8.1mph /  13.0km/h 12.3mph /  19.8km/h 56% 0in /  0.0mm
04:28 28.6 °F /  -1.9 °C 14 °F /  -10.0 °C 30.2in /  1021.9hPa East 10.1mph /  16.3km/h 12.1mph /  19.5km/h 56% 0in /  0.0mm
04:33 28.4 °F /  -2.0 °C 14 °F /  -10.0 °C 30.2in /  1022.9hPa East 6mph /  9.7km/h 11mph /  17.7km/h 56% 0in /  0.0mm
04:38 28.4 °F /  -2.0 °C 14 °F /  -10.0 °C 30.2in /  1022.9hPa ENE 8.7mph /  14.0km/h 13mph /  20.9km/h 56% 0in /  0.0mm
04:43 28.4 °F /  -2.0 °C 14 °F /  -10.0 °C 30.2in /  1022.9hPa ENE 7.6mph /  12.2km/h 13.9mph /  22.4km/h 56% 0in /  0.0mm
04:48 28.4 °F /  -2.0 °C 14 °F /  -10.0 °C 30.2in /  1021.9hPa NE 9.8mph /  15.8km/h 13.9mph /  22.4km/h 56% 0in /  0.0mm
04:53 28.4 °F /  -2.0 °C 14 °F /  -10.0 °C 30.2in /  1021.9hPa NE 9.4mph /  15.1km/h 12.8mph /  20.6km/h 56% 0in /  0.0mm
04:58 28.2 °F /  -2.1 °C 12.2 °F /  -11.0 °C 30.2in /  1022.9hPa ENE 6.5mph /  10.5km/h 11.4mph /  18.3km/h 55% 0in /  0.0mm
05:04 28.2 °F /  -2.1 °C 14 °F /  -10.0 °C 30.2in /  1022.9hPa East 10.3mph /  16.6km/h 10.7mph /  17.2km/h 56% 0in /  0.0mm
05:09 28.2 °F /  -2.1 °C 14 °F /  -10.0 °C 30.2in /  1022.9hPa ENE 11mph /  17.7km/h 11mph /  17.7km/h 56% 0in /  0.0mm
05:14 28 °F /  -2.2 °C 12.2 °F /  -11.0 °C 30.2in /  1021.9hPa NE 8.1mph /  13.0km/h 12.1mph /  19.5km/h 55% 0in /  0.0mm
05:19 28 °F /  -2.2 °C 14 °F /  -10.0 °C 30.2in /  1021.9hPa ENE 8.9mph /  14.3km/h 12.1mph /  19.5km/h 56% 0in /  0.0mm
05:24 27.9 °F /  -2.3 °C 12.2 °F /  -11.0 °C 30.2in /  1021.9hPa NNE 8.1mph /  13.0km/h 12.3mph /  19.8km/h 56% 0in /  0.0mm
05:29 27.9 °F /  -2.3 °C 12.2 °F /  -11.0 °C 30.2in /  1022.9hPa ENE 7.2mph /  11.6km/h 12.3mph /  19.8km/h 56% 0in /  0.0mm
05:34 27.9 °F /  -2.3 °C 12.2 °F /  -11.0 °C 30.2in /  1022.9hPa ENE 10.7mph /  17.2km/h 10.7mph /  17.2km/h 56% 0in /  0.0mm
05:39 27.9 °F /  -2.3 °C 12.2 °F /  -11.0 °C 30.2in /  1022.9hPa ENE 7.6mph /  12.2km/h 13.2mph /  21.2km/h 56% 0in /  0.0mm
05:44 27.7 °F /  -2.4 °C 12.2 °F /  -11.0 °C 30.2in /  1022.9hPa ENE 10.3mph /  16.6km/h 13.2mph /  21.2km/h 56% 0in /  0.0mm
05:49 27.7 °F /  -2.4 °C 12.2 °F /  -11.0 °C 30.2in /  1022.9hPa East 7.4mph /  11.9km/h 13mph /  20.9km/h 56% 0in /  0.0mm
05:54 27.7 °F /  -2.4 °C 12.2 °F /  -11.0 °C 30.2in /  1022.9hPa ENE 7.8mph /  12.6km/h 17.4mph /  28.0km/h 56% 0in /  0.0mm
05:59 27.7 °F /  -2.4 °C 12.2 °F /  -11.0 °C 30.2in /  1022.9hPa NE 11mph /  17.7km/h 17.4mph /  28.0km/h 56% 0in /  0.0mm
06:04 27.5 °F /  -2.5 °C 12.2 °F /  -11.0 °C 30.2in /  1022.9hPa ENE 8.7mph /  14.0km/h 12.8mph /  20.6km/h 56% 0in /  0.0mm
06:09 27.5 °F /  -2.5 °C 12.2 °F /  -11.0 °C 30.2in /  1022.9hPa ENE 10.5mph /  16.9km/h 12.3mph /  19.8km/h 56% 0in /  0.0mm
06:14 27.5 °F /  -2.5 °C 12.2 °F /  -11.0 °C 30.2in /  1022.9hPa NNE 10.1mph /  16.3km/h 13.2mph /  21.2km/h 55% 0in /  0.0mm
06:19 27.3 °F /  -2.6 °C 12.2 °F /  -11.0 °C 30.2in /  1022.9hPa East 7.6mph /  12.2km/h 13.2mph /  21.2km/h 56% 0in /  0.0mm
06:24 27.3 °F /  -2.6 °C 12.2 °F /  -11.0 °C 30.2in /  1022.9hPa East 7.4mph /  11.9km/h 12.5mph /  20.1km/h 56% 0in /  0.0mm
06:29 27.3 °F /  -2.6 °C 12.2 °F /  -11.0 °C 30.2in /  1022.9hPa ENE 8.9mph /  14.3km/h 14.5mph /  23.3km/h 56% 0in /  0.0mm
06:34 27.1 °F /  -2.7 °C 12.2 °F /  -11.0 °C 30.2in /  1022.9hPa East 11.2mph /  18.0km/h 14.5mph /  23.3km/h 56% 0in /  0.0mm
06:39 27.1 °F /  -2.7 °C 12.2 °F /  -11.0 °C 30.2in /  1022.9hPa ENE 10.3mph /  16.6km/h 13.6mph /  21.9km/h 56% 0in /  0.0mm
06:44 27.1 °F /  -2.7 °C 12.2 °F /  -11.0 °C 30.2in /  1022.9hPa ENE 8.9mph /  14.3km/h 13.6mph /  21.9km/h 55% 0in /  0.0mm
06:49 27.1 °F /  -2.7 °C 12.2 °F /  -11.0 °C 30.2in /  1022.9hPa East 8.9mph /  14.3km/h 15.7mph /  25.3km/h 55% 0in /  0.0mm
06:54 27.1 °F /  -2.7 °C 12.2 °F /  -11.0 °C 30.2in /  1022.9hPa East 8.7mph /  14.0km/h 15.7mph /  25.3km/h 55% 0in /  0.0mm
07:00 27 °F /  -2.8 °C 12.2 °F /  -11.0 °C 30.2in /  1023.9hPa ENE 12.8mph /  20.6km/h 15.9mph /  25.6km/h 55% 0in /  0.0mm
07:05 27 °F /  -2.8 °C 12.2 °F /  -11.0 °C 30.2in /  1023.9hPa East 7.4mph /  11.9km/h 15.9mph /  25.6km/h 55% 0in /  0.0mm
07:10 27 °F /  -2.8 °C 12.2 °F /  -11.0 °C 30.2in /  1023.9hPa ENE 9.8mph /  15.8km/h 13.2mph /  21.2km/h 55% 0in /  0.0mm
07:15 26.8 °F /  -2.9 °C 12.2 °F /  -11.0 °C 30.2in /  1023.9hPa ENE 10.1mph /  16.3km/h 13.2mph /  21.2km/h 55% 0in /  0.0mm
07:20 26.8 °F /  -2.9 °C 12.2 °F /  -11.0 °C 30.2in /  1023.9hPa ENE 6.7mph /  10.8km/h 11.2mph /  18.0km/h 55% 0in /  0.0mm
07:25 26.6 °F /  -3.0 °C 12.2 °F /  -11.0 °C 30.2in /  1023.9hPa East 7.8mph /  12.6km/h 13.2mph /  21.2km/h 56% 0in /  0.0mm
07:30 26.6 °F /  -3.0 °C 12.2 °F /  -11.0 °C 30.3in /  1024.9hPa East 7.6mph /  12.2km/h 13.2mph /  21.2km/h 56% 0in /  0.0mm
07:35 26.4 °F /  -3.1 °C 12.2 °F /  -11.0 °C 30.3in /  1024.9hPa NNE 10.3mph /  16.6km/h 11.9mph /  19.1km/h 56% 0in /  0.0mm
07:40 26.4 °F /  -3.1 °C 12.2 °F /  -11.0 °C 30.3in /  1024.9hPa NE 8.7mph /  14.0km/h 13.9mph /  22.4km/h 56% 0in /  0.0mm
07:45 26.4 °F /  -3.1 °C 12.2 °F /  -11.0 °C 30.3in /  1024.9hPa ENE 10.7mph /  17.2km/h 15.4mph /  24.8km/h 56% 0in /  0.0mm
07:50 26.4 °F /  -3.1 °C 12.2 °F /  -11.0 °C 30.3in /  1024.9hPa ENE 8.7mph /  14.0km/h 15.4mph /  24.8km/h 56% 0in /  0.0mm
07:55 26.4 °F /  -3.1 °C 12.2 °F /  -11.0 °C 30.3in /  1024.9hPa NE 9.8mph /  15.8km/h 14.5mph /  23.3km/h 56% 0in /  0.0mm
08:00 26.4 °F /  -3.1 °C 12.2 °F /  -11.0 °C 30.3in /  1026.0hPa NE 8.1mph /  13.0km/h 14.5mph /  23.3km/h 56% 0in /  0.0mm
08:05 26.4 °F /  -3.1 °C 12.2 °F /  -11.0 °C 30.3in /  1026.0hPa ENE 9.8mph /  15.8km/h 13.9mph /  22.4km/h 56% 0in /  0.0mm
08:10 26.6 °F /  -3.0 °C 12.2 °F /  -11.0 °C 30.3in /  1026.0hPa ENE 10.5mph /  16.9km/h 17.2mph /  27.7km/h 56% 0in /  0.0mm
08:15 26.8 °F /  -2.9 °C 12.2 °F /  -11.0 °C 30.3in /  1024.9hPa ENE 10.7mph /  17.2km/h 17.2mph /  27.7km/h 56% 0in /  0.0mm
08:20 27 °F /  -2.8 °C 12.2 °F /  -11.0 °C 30.3in /  1024.9hPa ENE 8.7mph /  14.0km/h 12.8mph /  20.6km/h 55% 0in /  0.0mm
08:25 27.1 °F /  -2.7 °C 12.2 °F /  -11.0 °C 30.3in /  1024.9hPa ENE 8.5mph /  13.7km/h 13.4mph /  21.6km/h 55% 0in /  0.0mm
08:30 27.3 °F /  -2.6 °C 12.2 °F /  -11.0 °C 30.3in /  1024.9hPa ENE 10.5mph /  16.9km/h 13.4mph /  21.6km/h 55% 0in /  0.0mm
08:35 27.5 °F /  -2.5 °C 12.2 °F /  -11.0 °C 30.3in /  1024.9hPa ENE 11mph /  17.7km/h 15.4mph /  24.8km/h 54% 0in /  0.0mm
08:40 27.9 °F /  -2.3 °C 12.2 °F /  -11.0 °C 30.3in /  1024.9hPa NE 11mph /  17.7km/h 15.9mph /  25.6km/h 54% 0in /  0.0mm
08:45 28 °F /  -2.2 °C 12.2 °F /  -11.0 °C 30.3in /  1024.9hPa NE 8.1mph /  13.0km/h 17.4mph /  28.0km/h 53% 0in /  0.0mm
08:51 28.2 °F /  -2.1 °C 12.2 °F /  -11.0 °C 30.3in /  1024.9hPa East 8.1mph /  13.0km/h 17.4mph /  28.0km/h 53% 0in /  0.0mm
08:56 28.4 °F /  -2.0 °C 12.2 °F /  -11.0 °C 30.3in /  1024.9hPa East 8.7mph /  14.0km/h 17mph /  27.4km/h 53% 0in /  0.0mm
09:01 28.6 °F /  -1.9 °C 12.2 °F /  -11.0 °C 30.3in /  1024.9hPa NE 8.7mph /  14.0km/h 17mph /  27.4km/h 52% 0in /  0.0mm
09:06 28.8 °F /  -1.8 °C 12.2 °F /  -11.0 °C 30.3in /  1024.9hPa ENE 10.7mph /  17.2km/h 15.4mph /  24.8km/h 52% 0in /  0.0mm
09:11 28.9 °F /  -1.7 °C 12.2 °F /  -11.0 °C 30.3in /  1024.9hPa East 8.9mph /  14.3km/h 15.4mph /  24.8km/h 52% 0in /  0.0mm
09:16 29.1 °F /  -1.6 °C 12.2 °F /  -11.0 °C 30.3in /  1024.9hPa ESE 10.3mph /  16.6km/h 14.5mph /  23.3km/h 51% 0in /  0.0mm
09:21 29.3 °F /  -1.5 °C 12.2 °F /  -11.0 °C 30.3in /  1024.9hPa ENE 12.8mph /  20.6km/h 16.3mph /  26.2km/h 51% 0in /  0.0mm
09:26 29.3 °F /  -1.5 °C 12.2 °F /  -11.0 °C 30.3in /  1024.9hPa NNE 7.6mph /  12.2km/h 16.3mph /  26.2km/h 51% 0in /  0.0mm
09:31 29.5 °F /  -1.4 °C 12.2 °F /  -11.0 °C 30.3in /  1024.9hPa ENE 13.4mph /  21.6km/h 15.4mph /  24.8km/h 51% 0in /  0.0mm
09:36 29.7 °F /  -1.3 °C 12.2 °F /  -11.0 °C 30.3in /  1024.9hPa East 12.5mph /  20.1km/h 13.4mph /  21.6km/h 50% 0in /  0.0mm
09:41 29.8 °F /  -1.2 °C 12.2 °F /  -11.0 °C 30.3in /  1024.9hPa ENE 11.9mph /  19.1km/h 13.9mph /  22.4km/h 50% 0in /  0.0mm
09:46 30 °F /  -1.1 °C 12.2 °F /  -11.0 °C 30.3in /  1026.0hPa ENE 9.8mph /  15.8km/h 13.9mph /  22.4km/h 50% 0in /  0.0mm
09:51 30.2 °F /  -1.0 °C 12.2 °F /  -11.0 °C 30.3in /  1026.0hPa ENE 10.7mph /  17.2km/h 12.8mph /  20.6km/h 50% 0in /  0.0mm
09:56 30.4 °F /  -0.9 °C 12.2 °F /  -11.0 °C 30.3in /  1026.0hPa East 13.2mph /  21.2km/h 13.2mph /  21.2km/h 48% 0in /  0.0mm
10:01 30.6 °F /  -0.8 °C 12.2 °F /  -11.0 °C 30.3in /  1026.0hPa East 12.1mph /  19.5km/h 13.2mph /  21.2km/h 48% 0in /  0.0mm
10:06 30.9 °F /  -0.6 °C 12.2 °F /  -11.0 °C 30.3in /  1026.0hPa NE 11.4mph /  18.3km/h 13.2mph /  21.2km/h 48% 0in /  0.0mm
10:07 30.9 °F /  -0.6 °C 12.2 °F /  -11.0 °C 30.3in /  1026.0hPa ENE 10.5mph /  16.9km/h 13.2mph /  21.2km/h 48% 0in /  0.0mm
10:12 31.1 °F /  -0.5 °C 12.2 °F /  -11.0 °C 30.3in /  1026.0hPa ENE 7.6mph /  12.2km/h 13.2mph /  21.2km/h 48% 0in /  0.0mm
10:17 31.1 °F /  -0.5 °C 12.2 °F /  -11.0 °C 30.3in /  1026.0hPa NE 6mph /  9.7km/h 15.4mph /  24.8km/h 47% 0in /  0.0mm
10:22 31.3 °F /  -0.4 °C 12.2 °F /  -11.0 °C 30.3in /  1026.0hPa East 8.7mph /  14.0km/h 15.4mph /  24.8km/h 46% 0in /  0.0mm
10:27 31.8 °F /  -0.1 °C 12.2 °F /  -11.0 °C 30.3in /  1026.0hPa ENE 6.3mph /  10.1km/h 13.2mph /  21.2km/h 47% 0in /  0.0mm
10:32 32.2 °F /  0.1 °C 14 °F /  -10.0 °C 30.3in /  1026.0hPa ENE 8.1mph /  13.0km/h 13.6mph /  21.9km/h 47% 0in /  0.0mm
10:37 32.2 °F /  0.1 °C 14 °F /  -10.0 °C 30.3in /  1026.0hPa ENE 12.3mph /  19.8km/h 17.7mph /  28.5km/h 46% 0in /  0.0mm
10:42 32.2 °F /  0.1 °C 14 °F /  -10.0 °C 30.3in /  1026.0hPa East 13mph /  20.9km/h 17.7mph /  28.5km/h 45% 0in /  0.0mm
10:47 32.4 °F /  0.2 °C 14 °F /  -10.0 °C 30.3in /  1027.0hPa ENE 5.6mph /  9.0km/h 15.4mph /  24.8km/h 45% 0in /  0.0mm
10:52 32.7 °F /  0.4 °C 14 °F /  -10.0 °C 30.3in /  1027.0hPa ENE 10.3mph /  16.6km/h 14.5mph /  23.3km/h 45% 0in /  0.0mm
10:57 32.7 °F /  0.4 °C 14 °F /  -10.0 °C 30.3in /  1027.0hPa East 8.5mph /  13.7km/h 14.8mph /  23.8km/h 44% 0in /  0.0mm
11:02 33.1 °F /  0.6 °C 14 °F /  -10.0 °C 30.3in /  1026.0hPa NE 10.1mph /  16.3km/h 14.8mph /  23.8km/h 44% 0in /  0.0mm
11:07 33.3 °F /  0.7 °C 14 °F /  -10.0 °C 30.3in /  1026.0hPa East 7.4mph /  11.9km/h 13mph /  20.9km/h 44% 0in /  0.0mm
11:12 33.6 °F /  0.9 °C 14 °F /  -10.0 °C 30.3in /  1026.0hPa East 15.9mph /  25.6km/h 15.9mph /  25.6km/h 44% 0in /  0.0mm
11:17 33.6 °F /  0.9 °C 14 °F /  -10.0 °C 30.3in /  1026.0hPa ENE 11mph /  17.7km/h 16.3mph /  26.2km/h 43% 0in /  0.0mm
11:22 33.8 °F /  1.0 °C 14 °F /  -10.0 °C 30.3in /  1026.0hPa East 7.2mph /  11.6km/h 16.3mph /  26.2km/h 43% 0in /  0.0mm
11:28 34 °F /  1.1 °C 14 °F /  -10.0 °C 30.3in /  1026.0hPa NE 10.5mph /  16.9km/h 13.2mph /  21.2km/h 43% 0in /  0.0mm
11:33 34.2 °F /  1.2 °C 14 °F /  -10.0 °C 30.3in /  1026.0hPa ENE 10.3mph /  16.6km/h 13.2mph /  21.2km/h 43% 0in /  0.0mm
11:38 34.5 °F /  1.4 °C 14 °F /  -10.0 °C 30.3in /  1026.0hPa East 10.5mph /  16.9km/h 13.2mph /  21.2km/h 43% 0in /  0.0mm
11:43 34.5 °F /  1.4 °C 14 °F /  -10.0 °C 30.3in /  1026.0hPa East 7.8mph /  12.6km/h 13.2mph /  21.2km/h 42% 0in /  0.0mm
11:48 34.7 °F /  1.5 °C 14 °F /  -10.0 °C 30.3in /  1026.0hPa ENE 12.1mph /  19.5km/h 13.2mph /  21.2km/h 42% 0in /  0.0mm
11:53 35.1 °F /  1.7 °C 14 °F /  -10.0 °C 30.3in /  1026.0hPa ENE 10.1mph /  16.3km/h 12.1mph /  19.5km/h 42% 0in /  0.0mm
11:58 35.1 °F /  1.7 °C 14 °F /  -10.0 °C 30.3in /  1026.0hPa East 7.6mph /  12.2km/h 13.2mph /  21.2km/h 42% 0in /  0.0mm
12:03 35.1 °F /  1.7 °C 14 °F /  -10.0 °C 30.3in /  1026.0hPa East 10.7mph /  17.2km/h 13.2mph /  21.2km/h 42% 0in /  0.0mm
12:08 35.1 °F /  1.7 °C 14 °F /  -10.0 °C 30.3in /  1026.0hPa East 5.8mph /  9.3km/h 13.2mph /  21.2km/h 41% 0in /  0.0mm
12:13 35.4 °F /  1.9 °C 14 °F /  -10.0 °C 30.3in /  1026.0hPa East 14.5mph /  23.3km/h 14.5mph /  23.3km/h 41% 0in /  0.0mm
12:18 35.6 °F /  2.0 °C 14 °F /  -10.0 °C 30.3in /  1026.0hPa ESE 6.3mph /  10.1km/h 14.5mph /  23.3km/h 41% 0in /  0.0mm
12:23 35.8 °F /  2.1 °C 14 °F /  -10.0 °C 30.3in /  1026.0hPa East 10.1mph /  16.3km/h 12.8mph /  20.6km/h 41% 0in /  0.0mm
12:28 36 °F /  2.2 °C 14 °F /  -10.0 °C 30.3in /  1026.0hPa East 7.6mph /  12.2km/h 13mph /  20.9km/h 41% 0in /  0.0mm
12:33 36.1 °F /  2.3 °C 14 °F /  -10.0 °C 30.3in /  1026.0hPa East 10.5mph /  16.9km/h 13mph /  20.9km/h 40% 0in /  0.0mm
12:38 36.1 °F /  2.3 °C 14 °F /  -10.0 °C 30.3in /  1026.0hPa NE 11mph /  17.7km/h 14.1mph /  22.7km/h 40% 0in /  0.0mm
12:43 36.3 °F /  2.4 °C 14 °F /  -10.0 °C 30.3in /  1026.0hPa East 8.5mph /  13.7km/h 14.1mph /  22.7km/h 40% 0in /  0.0mm
12:48 36.5 °F /  2.5 °C 15.8 °F /  -9.0 °C 30.3in /  1026.0hPa East 12.5mph /  20.1km/h 12.8mph /  20.6km/h 40% 0in /  0.0mm
12:53 36.7 °F /  2.6 °C 15.8 °F /  -9.0 °C 30.3in /  1026.0hPa NE 10.1mph /  16.3km/h 12.8mph /  20.6km/h 40% 0in /  0.0mm
12:58 36.7 °F /  2.6 °C 15.8 °F /  -9.0 °C 30.3in /  1026.0hPa NE 10.1mph /  16.3km/h 12.5mph /  20.1km/h 40% 0in /  0.0mm
13:03 36.7 °F /  2.6 °C 15.8 °F /  -9.0 °C 30.3in /  1026.0hPa NE 8.7mph /  14.0km/h 15.4mph /  24.8km/h 40% 0in /  0.0mm
13:08 36.9 °F /  2.7 °C 14 °F /  -10.0 °C 30.3in /  1026.0hPa ENE 10.7mph /  17.2km/h 15.4mph /  24.8km/h 39% 0in /  0.0mm
13:14 37 °F /  2.8 °C 15.8 °F /  -9.0 °C 30.3in /  1026.0hPa ENE 8.7mph /  14.0km/h 14.8mph /  23.8km/h 39% 0in /  0.0mm
13:19 37.2 °F /  2.9 °C 15.8 °F /  -9.0 °C 30.3in /  1026.0hPa NE 12.8mph /  20.6km/h 15.4mph /  24.8km/h 39% 0in /  0.0mm
13:24 37.4 °F /  3.0 °C 15.8 °F /  -9.0 °C 30.3in /  1026.0hPa ENE 10.1mph /  16.3km/h 15.4mph /  24.8km/h 39% 0in /  0.0mm
13:29 37.4 °F /  3.0 °C 14 °F /  -10.0 °C 30.3in /  1026.0hPa ENE 12.5mph /  20.1km/h 15.4mph /  24.8km/h 38% 0in /  0.0mm
13:34 37.4 °F /  3.0 °C 15.8 °F /  -9.0 °C 30.3in /  1026.0hPa NE 8.7mph /  14.0km/h 15.4mph /  24.8km/h 39% 0in /  0.0mm
13:39 37.9 °F /  3.3 °C 15.8 °F /  -9.0 °C 30.3in /  1026.0hPa ENE 7.8mph /  12.6km/h 12.5mph /  20.1km/h 39% 0in /  0.0mm
13:44 38.3 °F /  3.5 °C 15.8 °F /  -9.0 °C 30.3in /  1024.9hPa ENE 5.6mph /  9.0km/h 10.5mph /  16.9km/h 39% 0in /  0.0mm
13:49 38.1 °F /  3.4 °C 15.8 °F /  -9.0 °C 30.3in /  1024.9hPa NNE 5.6mph /  9.0km/h 11mph /  17.7km/h 39% 0in /  0.0mm
13:54 38.3 °F /  3.5 °C 15.8 °F /  -9.0 °C 30.3in /  1024.9hPa East 8.1mph /  13.0km/h 11mph /  17.7km/h 39% 0in /  0.0mm
13:59 38.5 °F /  3.6 °C 15.8 °F /  -9.0 °C 30.3in /  1024.9hPa NE 7.4mph /  11.9km/h 10.3mph /  16.6km/h 38% 0in /  0.0mm
14:04 38.5 °F /  3.6 °C 15.8 °F /  -9.0 °C 30.3in /  1024.9hPa East 6mph /  9.7km/h 10.3mph /  16.6km/h 38% 0in /  0.0mm
14:09 38.5 °F /  3.6 °C 14 °F /  -10.0 °C 30.3in /  1024.9hPa NE 9.2mph /  14.8km/h 10.3mph /  16.6km/h 37% 0in /  0.0mm
14:14 38.7 °F /  3.7 °C 15.8 °F /  -9.0 °C 30.3in /  1024.9hPa ENE 8.5mph /  13.7km/h 10.3mph /  16.6km/h 38% 0in /  0.0mm
14:19 38.5 °F /  3.6 °C 14 °F /  -10.0 °C 30.3in /  1024.9hPa East 5.6mph /  9.0km/h 10.3mph /  16.6km/h 36% 0in /  0.0mm
14:24 38.5 °F /  3.6 °C 14 °F /  -10.0 °C 30.3in /  1024.9hPa ENE 11mph /  17.7km/h 15.4mph /  24.8km/h 37% 0in /  0.0mm
14:29 38.5 °F /  3.6 °C 14 °F /  -10.0 °C 30.3in /  1024.9hPa East 8.1mph /  13.0km/h 15.4mph /  24.8km/h 35% 0in /  0.0mm
14:34 38.7 °F /  3.7 °C 14 °F /  -10.0 °C 30.3in /  1024.9hPa NNE 11.2mph /  18.0km/h 13.4mph /  21.6km/h 35% 0in /  0.0mm
14:40 38.5 °F /  3.6 °C 14 °F /  -10.0 °C 30.3in /  1024.9hPa ENE 9.8mph /  15.8km/h 13.2mph /  21.2km/h 36% 0in /  0.0mm
14:45 38.7 °F /  3.7 °C 14 °F /  -10.0 °C 30.3in /  1024.9hPa NE 11.9mph /  19.1km/h 12.5mph /  20.1km/h 36% 0in /  0.0mm
14:50 38.7 °F /  3.7 °C 14 °F /  -10.0 °C 30.3in /  1024.9hPa NE 8.7mph /  14.0km/h 13mph /  20.9km/h 35% 0in /  0.0mm
14:55 38.7 °F /  3.7 °C 14 °F /  -10.0 °C 30.3in /  1024.9hPa NE 10.1mph /  16.3km/h 13mph /  20.9km/h 35% 0in /  0.0mm
15:00 38.8 °F /  3.8 °C 12.2 °F /  -11.0 °C 30.3in /  1024.9hPa ENE 7.8mph /  12.6km/h 13mph /  20.9km/h 34% 0in /  0.0mm
15:05 38.7 °F /  3.7 °C 14 °F /  -10.0 °C 30.3in /  1024.9hPa NE 10.3mph /  16.6km/h 14.1mph /  22.7km/h 35% 0in /  0.0mm
15:10 38.5 °F /  3.6 °C 14 °F /  -10.0 °C 30.3in /  1024.9hPa NE 10.1mph /  16.3km/h 18.6mph /  29.9km/h 35% 0in /  0.0mm
15:15 38.5 °F /  3.6 °C 12.2 °F /  -11.0 °C 30.2in /  1023.9hPa NE 9.8mph /  15.8km/h 18.6mph /  29.9km/h 34% 0in /  0.0mm
15:20 38.5 °F /  3.6 °C 12.2 °F /  -11.0 °C 30.2in /  1023.9hPa NNE 11mph /  17.7km/h 17mph /  27.4km/h 33% 0in /  0.0mm
15:25 38.3 °F /  3.5 °C 12.2 °F /  -11.0 °C 30.2in /  1023.9hPa NE 10.5mph /  16.9km/h 17mph /  27.4km/h 33% 0in /  0.0mm
15:30 38.3 °F /  3.5 °C 12.2 °F /  -11.0 °C 30.3in /  1024.9hPa NE 12.1mph /  19.5km/h 15.9mph /  25.6km/h 33% 0in /  0.0mm
15:35 38.5 °F /  3.6 °C 12.2 °F /  -11.0 °C 30.3in /  1024.9hPa ENE 10.7mph /  17.2km/h 15.9mph /  25.6km/h 33% 0in /  0.0mm
15:40 38.7 °F /  3.7 °C 12.2 °F /  -11.0 °C 30.3in /  1024.9hPa ENE 8.1mph /  13.0km/h 13mph /  20.9km/h 32% 0in /  0.0mm
15:45 38.7 °F /  3.7 °C 12.2 °F /  -11.0 °C 30.3in /  1024.9hPa NE 12.3mph /  19.8km/h 16.6mph /  26.7km/h 32% 0in /  0.0mm
15:50 38.7 °F /  3.7 °C 12.2 °F /  -11.0 °C 30.3in /  1024.9hPa NE 13mph /  20.9km/h 17.4mph /  28.0km/h 32% 0in /  0.0mm
15:55 38.5 °F /  3.6 °C 12.2 °F /  -11.0 °C 30.3in /  1024.9hPa NE 12.3mph /  19.8km/h 17.4mph /  28.0km/h 33% 0in /  0.0mm
16:00 38.7 °F /  3.7 °C 12.2 °F /  -11.0 °C 30.3in /  1024.9hPa ENE 8.7mph /  14.0km/h 17.7mph /  28.5km/h 32% 0in /  0.0mm
16:05 38.3 °F /  3.5 °C 10.4 °F /  -12.0 °C 30.3in /  1024.9hPa NE 12.3mph /  19.8km/h 17.7mph /  28.5km/h 31% 0in /  0.0mm
16:11 38.1 °F /  3.4 °C 10.4 °F /  -12.0 °C 30.3in /  1024.9hPa NE 13.2mph /  21.2km/h 18.6mph /  29.9km/h 31% 0in /  0.0mm
16:16 37.9 °F /  3.3 °C 10.4 °F /  -12.0 °C 30.3in /  1024.9hPa NE 10.7mph /  17.2km/h 18.6mph /  29.9km/h 30% 0in /  0.0mm
16:21 37.9 °F /  3.3 °C 10.4 °F /  -12.0 °C 30.3in /  1024.9hPa NE 8.5mph /  13.7km/h 15.2mph /  24.5km/h 30% 0in /  0.0mm
16:26 37.9 °F /  3.3 °C 10.4 °F /  -12.0 °C 30.3in /  1024.9hPa ENE 12.5mph /  20.1km/h 17.2mph /  27.7km/h 30% 0in /  0.0mm
16:31 37.6 °F /  3.1 °C 8.6 °F /  -13.0 °C 30.2in /  1023.9hPa ENE 10.3mph /  16.6km/h 17.2mph /  27.7km/h 29% 0in /  0.0mm
16:36 37.6 °F /  3.1 °C 8.6 °F /  -13.0 °C 30.2in /  1023.9hPa ENE 6.3mph /  10.1km/h 17mph /  27.4km/h 30% 0in /  0.0mm
16:41 37.6 °F /  3.1 °C 8.6 °F /  -13.0 °C 30.2in /  1023.9hPa NE 11mph /  17.7km/h 14.1mph /  22.7km/h 30% 0in /  0.0mm
16:46 37.4 °F /  3.0 °C 8.6 °F /  -13.0 °C 30.3in /  1024.9hPa ENE 9.8mph /  15.8km/h 14.1mph /  22.7km/h 30% 0in /  0.0mm
16:51 37 °F /  2.8 °C 8.6 °F /  -13.0 °C 30.3in /  1024.9hPa NE 10.3mph /  16.6km/h 19.2mph /  30.9km/h 30% 0in /  0.0mm
16:56 36.9 °F /  2.7 °C 8.6 °F /  -13.0 °C 30.3in /  1024.9hPa ENE 12.1mph /  19.5km/h 19.2mph /  30.9km/h 30% 0in /  0.0mm
17:01 36.7 °F /  2.6 °C 10.4 °F /  -12.0 °C 30.3in /  1024.9hPa NE 8.5mph /  13.7km/h 12.3mph /  19.8km/h 32% 0in /  0.0mm
17:06 36.5 °F /  2.5 °C 10.4 °F /  -12.0 °C 30.3in /  1024.9hPa ENE 10.1mph /  16.3km/h 16.1mph /  25.9km/h 32% 0in /  0.0mm
17:11 36.5 °F /  2.5 °C 10.4 °F /  -12.0 °C 30.3in /  1024.9hPa NE 8.5mph /  13.7km/h 16.1mph /  25.9km/h 31% 0in /  0.0mm
17:16 36.1 °F /  2.3 °C 8.6 °F /  -13.0 °C 30.3in /  1024.9hPa ENE 17.9mph /  28.8km/h 17.9mph /  28.8km/h 30% 0in /  0.0mm
17:21 36 °F /  2.2 °C 8.6 °F /  -13.0 °C 30.3in /  1024.9hPa NNE 10.1mph /  16.3km/h 17.9mph /  28.8km/h 31% 0in /  0.0mm
17:26 35.8 °F /  2.1 °C 8.6 °F /  -13.0 °C 30.3in /  1024.9hPa NNE 10.7mph /  17.2km/h 17.9mph /  28.8km/h 32% 0in /  0.0mm
17:31 35.6 °F /  2.0 °C 10.4 °F /  -12.0 °C 30.3in /  1024.9hPa ENE 12.1mph /  19.5km/h 14.8mph /  23.8km/h 33% 0in /  0.0mm
17:36 35.4 °F /  1.9 °C 10.4 °F /  -12.0 °C 30.3in /  1024.9hPa ENE 14.8mph /  23.8km/h 14.8mph /  23.8km/h 35% 0in /  0.0mm
17:41 35.2 °F /  1.8 °C 10.4 °F /  -12.0 °C 30.3in /  1024.9hPa NE 10.5mph /  16.9km/h 15.4mph /  24.8km/h 35% 0in /  0.0mm
17:47 35.1 °F /  1.7 °C 10.4 °F /  -12.0 °C 30.3in /  1024.9hPa NE 8.1mph /  13.0km/h 16.8mph /  27.0km/h 35% 0in /  0.0mm
17:52 34.7 °F /  1.5 °C 10.4 °F /  -12.0 °C 30.3in /  1024.9hPa NE 12.3mph /  19.8km/h 16.8mph /  27.0km/h 34% 0in /  0.0mm
17:57 34.3 °F /  1.3 °C 8.6 °F /  -13.0 °C 30.3in /  1024.9hPa NNE 8.5mph /  13.7km/h 15.4mph /  24.8km/h 34% 0in /  0.0mm
18:02 34.2 °F /  1.2 °C 10.4 °F /  -12.0 °C 30.3in /  1024.9hPa NE 11mph /  17.7km/h 15.4mph /  24.8km/h 35% 0in /  0.0mm
18:07 34 °F /  1.1 °C 10.4 °F /  -12.0 °C 30.3in /  1024.9hPa NNE 8.1mph /  13.0km/h 14.5mph /  23.3km/h 36% 0in /  0.0mm
18:12 33.6 °F /  0.9 °C 10.4 °F /  -12.0 °C 30.3in /  1024.9hPa NE 17.7mph /  28.5km/h 17.7mph /  28.5km/h 38% 0in /  0.0mm
18:17 33.4 °F /  0.8 °C 10.4 °F /  -12.0 °C 30.3in /  1024.9hPa NE 12.3mph /  19.8km/h 17.7mph /  28.5km/h 38% 0in /  0.0mm
18:22 33.3 °F /  0.7 °C 12.2 °F /  -11.0 °C 30.3in /  1024.9hPa NNE 9.6mph /  15.4km/h 17.7mph /  28.5km/h 39% 0in /  0.0mm
18:27 33.1 °F /  0.6 °C 12.2 °F /  -11.0 °C 30.3in /  1024.9hPa NE 8.7mph /  14.0km/h 15.4mph /  24.8km/h 39% 0in /  0.0mm
18:32 32.9 °F /  0.5 °C 12.2 °F /  -11.0 °C 30.3in /  1024.9hPa NE 12.5mph /  20.1km/h 12.5mph /  20.1km/h 40% 0in /  0.0mm
18:37 32.7 °F /  0.4 °C 12.2 °F /  -11.0 °C 30.3in /  1024.9hPa NNE 9.8mph /  15.8km/h 12.5mph /  20.1km/h 40% 0in /  0.0mm
18:42 32.7 °F /  0.4 °C 12.2 °F /  -11.0 °C 30.3in /  1024.9hPa NE 15.4mph /  24.8km/h 15.4mph /  24.8km/h 40% 0in /  0.0mm
18:46 32.5 °F /  0.3 °C 12.2 °F /  -11.0 °C 30.3in /  1026.0hPa NE 9.8mph /  15.8km/h 15.4mph /  24.8km/h 40% 0in /  0.0mm
18:51 32.5 °F /  0.3 °C 12.2 °F /  -11.0 °C 30.3in /  1026.0hPa NE 7.8mph /  12.6km/h 15.4mph /  24.8km/h 40% 0in /  0.0mm
18:56 32.2 °F /  0.1 °C 10.4 °F /  -12.0 °C 30.3in /  1026.0hPa NNE 8.7mph /  14.0km/h 12.1mph /  19.5km/h 40% 0in /  0.0mm
19:01 32.2 °F /  0.1 °C 12.2 °F /  -11.0 °C 30.3in /  1026.0hPa NE 7.8mph /  12.6km/h 11mph /  17.7km/h 41% 0in /  0.0mm
19:06 32.2 °F /  0.1 °C 12.2 °F /  -11.0 °C 30.3in /  1026.0hPa NE 9.8mph /  15.8km/h 13.2mph /  21.2km/h 41% 0in /  0.0mm
19:11 32 °F /  0.0 °C 10.4 °F /  -12.0 °C 30.3in /  1026.0hPa ENE 10.3mph /  16.6km/h 13.2mph /  21.2km/h 41% 0in /  0.0mm
19:16 32 °F /  0.0 °C 10.4 °F /  -12.0 °C 30.3in /  1026.0hPa NE 8.7mph /  14.0km/h 12.5mph /  20.1km/h 41% 0in /  0.0mm
19:21 31.8 °F /  -0.1 °C 10.4 °F /  -12.0 °C 30.3in /  1026.0hPa NNE 8.5mph /  13.7km/h 12.3mph /  19.8km/h 41% 0in /  0.0mm
19:26 31.8 °F /  -0.1 °C 10.4 °F /  -12.0 °C 30.3in /  1026.0hPa ENE 7.4mph /  11.9km/h 13.2mph /  21.2km/h 41% 0in /  0.0mm
19:31 31.5 °F /  -0.3 °C 8.6 °F /  -13.0 °C 30.3in /  1026.0hPa ENE 8.5mph /  13.7km/h 13.2mph /  21.2km/h 41% 0in /  0.0mm
19:36 31.5 °F /  -0.3 °C 8.6 °F /  -13.0 °C 30.3in /  1026.0hPa NE 8.9mph /  14.3km/h 10.1mph /  16.3km/h 41% 0in /  0.0mm
19:38 31.5 °F /  -0.3 °C 8.6 °F /  -13.0 °C 30.3in /  1026.0hPa NE 7.6mph /  12.2km/h 10.1mph /  16.3km/h 41% 0in /  0.0mm
19:43 31.3 °F /  -0.4 °C 8.6 °F /  -13.0 °C 30.3in /  1026.0hPa NE 8.7mph /  14.0km/h 8.9mph /  14.3km/h 41% 0in /  0.0mm
19:48 31.1 °F /  -0.5 °C 8.6 °F /  -13.0 °C 30.3in /  1026.0hPa NNE 9.8mph /  15.8km/h 9.8mph /  15.8km/h 41% 0in /  0.0mm
19:53 31.1 °F /  -0.5 °C 8.6 °F /  -13.0 °C 30.3in /  1026.0hPa NE 10.5mph /  16.9km/h 11mph /  17.7km/h 41% 0in /  0.0mm
19:58 30.9 °F /  -0.6 °C 8.6 °F /  -13.0 °C 30.3in /  1026.0hPa ENE 4.9mph /  7.9km/h 11mph /  17.7km/h 42% 0in /  0.0mm
20:03 30.6 °F /  -0.8 °C 8.6 °F /  -13.0 °C 30.3in /  1026.0hPa North 10.1mph /  16.3km/h 10.7mph /  17.2km/h 42% 0in /  0.0mm
20:08 30.4 °F /  -0.9 °C 8.6 °F /  -13.0 °C 30.3in /  1026.0hPa NNE 8.5mph /  13.7km/h 10.7mph /  17.2km/h 42% 0in /  0.0mm
20:13 30.2 °F /  -1.0 °C 8.6 °F /  -13.0 °C 30.3in /  1026.0hPa NNE 5.8mph /  9.3km/h 8.9mph /  14.3km/h 43% 0in /  0.0mm
20:18 29.8 °F /  -1.2 °C 10.4 °F /  -12.0 °C 30.3in /  1026.0hPa NNE 7.4mph /  11.9km/h 8.5mph /  13.7km/h 44% 0in /  0.0mm
20:23 29.7 °F /  -1.3 °C 10.4 °F /  -12.0 °C 30.3in /  1026.0hPa NE 9.4mph /  15.1km/h 9.4mph /  15.1km/h 44% 0in /  0.0mm
20:28 29.5 °F /  -1.4 °C 10.4 °F /  -12.0 °C 30.3in /  1026.0hPa ENE 8.1mph /  13.0km/h 10.1mph /  16.3km/h 45% 0in /  0.0mm
20:33 29.5 °F /  -1.4 °C 10.4 °F /  -12.0 °C 30.3in /  1026.0hPa NE 6.5mph /  10.5km/h 10.3mph /  16.6km/h 46% 0in /  0.0mm
20:38 29.5 °F /  -1.4 °C 10.4 °F /  -12.0 °C 30.3in /  1026.0hPa NNE 8.1mph /  13.0km/h 10.5mph /  16.9km/h 46% 0in /  0.0mm
20:43 29.5 °F /  -1.4 °C 10.4 °F /  -12.0 °C 30.3in /  1026.0hPa NE 7.8mph /  12.6km/h 11.9mph /  19.1km/h 47% 0in /  0.0mm
20:48 29.5 °F /  -1.4 °C 10.4 °F /  -12.0 °C 30.3in /  1026.0hPa NE 6.5mph /  10.5km/h 11.9mph /  19.1km/h 47% 0in /  0.0mm
20:53 29.5 °F /  -1.4 °C 12.2 °F /  -11.0 °C 30.3in /  1026.0hPa NE 12.5mph /  20.1km/h 12.5mph /  20.1km/h 48% 0in /  0.0mm
20:58 29.5 °F /  -1.4 °C 12.2 °F /  -11.0 °C 30.3in /  1026.0hPa NE 7.4mph /  11.9km/h 12.5mph /  20.1km/h 49% 0in /  0.0mm
21:03 29.5 °F /  -1.4 °C 12.2 °F /  -11.0 °C 30.3in /  1026.0hPa NE 10.1mph /  16.3km/h 12.5mph /  20.1km/h 49% 0in /  0.0mm
21:08 29.5 °F /  -1.4 °C 12.2 °F /  -11.0 °C 30.3in /  1026.0hPa NE 8.5mph /  13.7km/h 12.5mph /  20.1km/h 50% 0in /  0.0mm
21:13 29.3 °F /  -1.5 °C 12.2 °F /  -11.0 °C 30.3in /  1026.0hPa NE 7.8mph /  12.6km/h 10.1mph /  16.3km/h 50% 0in /  0.0mm
21:18 29.3 °F /  -1.5 °C 12.2 °F /  -11.0 °C 30.3in /  1027.0hPa NE 12.3mph /  19.8km/h 13mph /  20.9km/h 50% 0in /  0.0mm
21:23 29.3 °F /  -1.5 °C 12.2 °F /  -11.0 °C 30.3in /  1027.0hPa ENE 10.1mph /  16.3km/h 13mph /  20.9km/h 51% 0in /  0.0mm
21:28 29.3 °F /  -1.5 °C 12.2 °F /  -11.0 °C 30.3in /  1026.0hPa NE 10.7mph /  17.2km/h 12.3mph /  19.8km/h 51% 0in /  0.0mm
21:33 29.1 °F /  -1.6 °C 12.2 °F /  -11.0 °C 30.3in /  1026.0hPa NE 8.1mph /  13.0km/h 12.3mph /  19.8km/h 51% 0in /  0.0mm
21:39 28.9 °F /  -1.7 °C 12.2 °F /  -11.0 °C 30.3in /  1026.0hPa NE 7.8mph /  12.6km/h 11mph /  17.7km/h 51% 0in /  0.0mm
21:44 28.9 °F /  -1.7 °C 12.2 °F /  -11.0 °C 30.3in /  1027.0hPa NE 7.6mph /  12.2km/h 12.8mph /  20.6km/h 51% 0in /  0.0mm
21:49 28.9 °F /  -1.7 °C 12.2 °F /  -11.0 °C 30.3in /  1027.0hPa NE 8.7mph /  14.0km/h 12.8mph /  20.6km/h 51% 0in /  0.0mm
21:54 28.8 °F /  -1.8 °C 12.2 °F /  -11.0 °C 30.3in /  1027.0hPa ENE 10.5mph /  16.9km/h 10.5mph /  16.9km/h 51% 0in /  0.0mm
21:59 28.9 °F /  -1.7 °C 12.2 °F /  -11.0 °C 30.3in /  1027.0hPa NE 9.8mph /  15.8km/h 10.7mph /  17.2km/h 51% 0in /  0.0mm
22:04 28.9 °F /  -1.7 °C 12.2 °F /  -11.0 °C 30.3in /  1027.0hPa ENE 8.7mph /  14.0km/h 10.7mph /  17.2km/h 50% 0in /  0.0mm
22:09 28.9 °F /  -1.7 °C 12.2 °F /  -11.0 °C 30.3in /  1027.0hPa NE 9.8mph /  15.8km/h 10.5mph /  16.9km/h 49% 0in /  0.0mm
22:14 29.1 °F /  -1.6 °C 10.4 °F /  -12.0 °C 30.3in /  1027.0hPa ENE 10.1mph /  16.3km/h 13.9mph /  22.4km/h 48% 0in /  0.0mm
22:19 28.9 °F /  -1.7 °C 12.2 °F /  -11.0 °C 30.3in /  1027.0hPa NE 7.4mph /  11.9km/h 13.9mph /  22.4km/h 49% 0in /  0.0mm
22:24 28.8 °F /  -1.8 °C 12.2 °F /  -11.0 °C 30.3in /  1027.0hPa ENE 7.6mph /  12.2km/h 10.5mph /  16.9km/h 49% 0in /  0.0mm
22:29 28.8 °F /  -1.8 °C 12.2 °F /  -11.0 °C 30.3in /  1026.0hPa NE 8.7mph /  14.0km/h 11.9mph /  19.1km/h 49% 0in /  0.0mm
22:34 28.8 °F /  -1.8 °C 12.2 °F /  -11.0 °C 30.3in /  1026.0hPa NE 9.8mph /  15.8km/h 11.9mph /  19.1km/h 49% 0in /  0.0mm
22:39 28.6 °F /  -1.9 °C 10.4 °F /  -12.0 °C 30.3in /  1026.0hPa ENE 7.8mph /  12.6km/h 11.2mph /  18.0km/h 49% 0in /  0.0mm
22:45 28.6 °F /  -1.9 °C 10.4 °F /  -12.0 °C 30.3in /  1027.0hPa ENE 8.5mph /  13.7km/h 13.2mph /  21.2km/h 49% 0in /  0.0mm
22:50 28.6 °F /  -1.9 °C 10.4 °F /  -12.0 °C 30.3in /  1027.0hPa ENE 9.2mph /  14.8km/h 13.2mph /  21.2km/h 49% 0in /  0.0mm
22:55 28.6 °F /  -1.9 °C 10.4 °F /  -12.0 °C 30.3in /  1027.0hPa NE 10.3mph /  16.6km/h 15.2mph /  24.5km/h 49% 0in /  0.0mm
23:00 28.6 °F /  -1.9 °C 10.4 °F /  -12.0 °C 30.3in /  1027.0hPa NE 12.8mph /  20.6km/h 15.2mph /  24.5km/h 49% 0in /  0.0mm
23:05 28.4 °F /  -2.0 °C 10.4 °F /  -12.0 °C 30.3in /  1027.0hPa ENE 7.8mph /  12.6km/h 13mph /  20.9km/h 50% 0in /  0.0mm
23:10 28.4 °F /  -2.0 °C 10.4 °F /  -12.0 °C 30.3in /  1027.0hPa NE 7.6mph /  12.2km/h 12.8mph /  20.6km/h 50% 0in /  0.0mm
23:15 28.2 °F /  -2.1 °C 10.4 °F /  -12.0 °C 30.3in /  1027.0hPa ENE 8.9mph /  14.3km/h 13.2mph /  21.2km/h 50% 0in /  0.0mm
23:20 28.2 °F /  -2.1 °C 10.4 °F /  -12.0 °C 30.3in /  1027.0hPa NE 8.9mph /  14.3km/h 13.2mph /  21.2km/h 50% 0in /  0.0mm
23:25 28.2 °F /  -2.1 °C 10.4 °F /  -12.0 °C 30.3in /  1027.0hPa NE 15.4mph /  24.8km/h 15.4mph /  24.8km/h 50% 0in /  0.0mm
23:30 28.2 °F /  -2.1 °C 10.4 °F /  -12.0 °C 30.3in /  1027.0hPa ENE 10.3mph /  16.6km/h 15.4mph /  24.8km/h 50% 0in /  0.0mm
23:35 28 °F /  -2.2 °C 10.4 °F /  -12.0 °C 30.3in /  1027.0hPa ENE 8.5mph /  13.7km/h 15.4mph /  24.8km/h 50% 0in /  0.0mm
23:40 28 °F /  -2.2 °C 10.4 °F /  -12.0 °C 30.3in /  1027.0hPa ENE 8.5mph /  13.7km/h 13.2mph /  21.2km/h 50% 0in /  0.0mm
23:45 28 °F /  -2.2 °C 10.4 °F /  -12.0 °C 30.3in /  1027.0hPa ENE 8.5mph /  13.7km/h 8.5mph /  13.7km/h 50% 0in /  0.0mm
23:50 27.9 °F /  -2.3 °C 10.4 °F /  -12.0 °C 30.3in /  1027.0hPa ENE 8.5mph /  13.7km/h 8.5mph /  13.7km/h 51% 0in /  0.0mm
23:55 27.9 °F /  -2.3 °C 10.4 °F /  -12.0 °C 30.3in /  1027.0hPa ENE 8.5mph /  13.7km/h 8.5mph /  13.7km/h 51% 0in /  0.0mm
Données Historique de Météo Turbie

Mise a jour : 18/06/2018 07:27:12
Généré par Cumulus 1.9.4 (1099)